Time;durP1;ratioP1;P1;durP2;ratioP2;P2;SDS_P1;SDS_P2;PMS_P1;PMS_P2;Temp;Humidity;BMP_temperature;BMP_pressure;BME280_temperature;BME280_humidity;BME280_pressure;Samples;Min_cycle;Max_cycle;Signal;HPM_P1;HPM_P2
2021/04/25 00:01:48;;;;;;;2.93;2.80;;;14.90;99.90;;;;;;5164439;27;20501;-37
2021/04/25 00:04:19;;;;;;;3.23;3.00;;;14.80;99.90;;;;;;5164727;27;20514;-36
2021/04/25 00:06:50;;;;;;;3.17;2.97;;;14.70;99.90;;;;;;5164772;27;20509;-36
2021/04/25 00:09:21;;;;;;;4.60;3.00;;;14.80;99.90;;;;;;5164654;27;20509;-37
2021/04/25 00:11:52;;;;;;;3.40;3.20;;;14.80;99.90;;;;;;5164042;27;20444;-36
2021/04/25 00:14:22;;;;;;;3.10;2.90;;;14.90;99.90;;;;;;5164825;27;20444;-36
2021/04/25 00:16:52;;;;;;;3.70;3.40;;;15.00;99.90;;;;;;5164589;27;20443;-36
2021/04/25 00:19:23;;;;;;;3.27;3.07;;;15.00;99.90;;;;;;5164710;27;20496;-36
2021/04/25 00:21:53;;;;;;;3.40;3.20;;;14.90;99.90;;;;;;5168605;27;20451;-38
2021/04/25 00:24:23;;;;;;;4.10;3.80;;;14.80;99.90;;;;;;5166473;27;20456;-37
2021/04/25 00:26:54;;;;;;;4.33;4.03;;;14.80;99.90;;;;;;5146749;27;20529;-37
2021/04/25 00:29:24;;;;;;;3.73;3.50;;;14.60;99.90;;;;;;5148083;27;20463;-38
2021/04/25 00:31:54;;;;;;;3.33;3.13;;;14.50;99.90;;;;;;5147574;27;20579;-34
2021/04/25 00:34:24;;;;;;;3.73;3.47;;;14.50;99.90;;;;;;5148318;27;20519;-36
2021/04/25 00:36:54;;;;;;;3.87;3.57;;;14.50;99.90;;;;;;5165796;27;20448;-35
2021/04/25 00:39:24;;;;;;;4.07;3.77;;;14.40;99.90;;;;;;5169101;27;20420;-37
2021/04/25 00:41:55;;;;;;;3.93;3.53;;;14.50;99.90;;;;;;5167523;27;20488;-35
2021/04/25 00:44:26;;;;;;;4.47;4.10;;;14.40;99.90;;;;;;5168093;27;20467;-37
2021/04/25 00:46:56;;;;;;;4.20;3.90;;;14.40;99.90;;;;;;5168012;27;20952;-37
2021/04/25 00:49:27;;;;;;;4.50;4.10;;;14.30;99.90;;;;;;5168303;27;20446;-37
2021/04/25 00:51:57;;;;;;;4.07;3.77;;;14.20;99.90;;;;;;5167769;27;20454;-35
2021/04/25 00:54:28;;;;;;;3.70;3.50;;;14.10;99.90;;;;;;5168384;27;20481;-36
2021/04/25 00:56:59;;;;;;;3.40;3.20;;;13.90;99.90;;;;;;5162657;27;20455;-36
2021/04/25 00:59:30;;;;;;;3.77;3.53;;;14.10;99.90;;;;;;5147592;27;20498;-34
2021/04/25 01:02:00;;;;;;;4.80;4.40;;;13.90;99.90;;;;;;5147034;27;20444;-38
2021/04/25 01:04:30;;;;;;;4.00;3.67;;;13.80;99.90;;;;;;5165466;27;20448;-38
2021/04/25 01:07:01;;;;;;;5.13;4.37;;;13.60;99.90;;;;;;5167844;27;20475;-38
2021/04/25 01:09:31;;;;;;;4.10;3.80;;;13.50;99.90;;;;;;5168251;27;21055;-38
2021/04/25 01:12:02;;;;;;;4.50;4.10;;;13.60;99.90;;;;;;5166950;27;20481;-39
2021/04/25 01:14:32;;;;;;;4.70;4.40;;;13.50;99.90;;;;;;5167986;27;20473;-38
2021/04/25 01:17:03;;;;;;;4.73;4.33;;;13.30;99.90;;;;;;5167651;27;20476;-39
2021/04/25 01:19:33;;;;;;;4.57;4.27;;;13.10;99.90;;;;;;5167691;27;20458;-37
2021/04/25 01:22:04;;;;;;;5.30;4.90;;;13.10;99.90;;;;;;5167436;27;20440;-37
2021/04/25 01:24:34;;;;;;;4.13;3.87;;;12.90;99.90;;;;;;5167682;27;20444;-38
2021/04/25 01:27:05;;;;;;;4.70;4.30;;;12.90;99.90;;;;;;5166545;27;20542;-37
2021/04/25 01:29:36;;;;;;;4.60;4.20;;;12.90;99.90;;;;;;5167910;27;20496;-36
2021/04/25 01:32:07;;;;;;;5.53;5.03;;;13.00;99.90;;;;;;5166388;27;20473;-37
2021/04/25 01:34:37;;;;;;;5.60;5.07;;;12.90;99.90;;;;;;5167767;27;20424;-39
2021/04/25 01:37:09;;;;;;;5.57;5.17;;;12.90;99.90;;;;;;5167517;27;20446;-37
2021/04/25 01:39:39;;;;;;;6.87;6.27;;;12.90;99.90;;;;;;5167484;27;20466;-38
2021/04/25 01:42:09;;;;;;;7.30;6.60;;;12.70;99.90;;;;;;5166113;27;20463;-39
2021/04/25 01:44:40;;;;;;;7.87;6.23;;;12.60;99.90;;;;;;5167093;27;20467;-37
2021/04/25 01:47:10;;;;;;;7.13;6.53;;;12.50;99.90;;;;;;5167085;27;20509;-36
2021/04/25 01:49:40;;;;;;;7.47;6.77;;;12.40;99.90;;;;;;5167169;27;20436;-36
2021/04/25 01:52:11;;;;;;;7.47;6.87;;;12.50;99.90;;;;;;5167044;27;20463;-38
2021/04/25 01:54:42;;;;;;;7.50;6.80;;;12.30;99.90;;;;;;5167309;27;20448;-37
2021/04/25 01:57:12;;;;;;;7.10;6.60;;;12.30;99.90;;;;;;5165788;27;20906;-39
2021/04/25 01:59:42;;;;;;;9.07;8.27;;;12.30;99.90;;;;;;5167305;27;20469;-37
2021/04/25 02:02:12;;;;;;;8.57;7.97;;;12.30;99.90;;;;;;5166521;27;20496;-39
2021/04/25 02:04:43;;;;;;;8.73;8.03;;;12.30;99.90;;;;;;5167133;27;20345;-41
2021/04/25 02:07:14;;;;;;;9.15;8.25;;;12.30;99.90;;;;;;5166703;27;20536;-36
2021/04/25 02:09:44;;;;;;;9.13;8.23;;;12.30;99.90;;;;;;5166869;27;20228;-37
2021/04/25 02:12:14;;;;;;;9.10;8.30;;;12.20;99.90;;;;;;5165837;27;20444;-37
2021/04/25 02:14:45;;;;;;;8.95;8.05;;;12.20;99.90;;;;;;5166954;27;20465;-35
2021/04/25 02:17:15;;;;;;;8.70;8.00;;;12.20;99.90;;;;;;5166237;27;20255;-38
2021/04/25 02:19:47;;;;;;;8.80;8.10;;;12.20;99.90;;;;;;5166664;27;20462;-38
2021/04/25 02:22:19;;;;;;;9.20;8.30;;;12.20;99.90;;;;;;5166031;27;20444;-38
2021/04/25 02:24:49;;;;;;;8.00;7.40;;;12.20;99.90;;;;;;5166349;27;20447;-36
2021/04/25 02:27:19;;;;;;;8.80;8.00;;;12.20;99.90;;;;;;5165390;27;20483;-38
2021/04/25 02:29:49;;;;;;;7.03;6.43;;;12.20;99.90;;;;;;5166551;27;20444;-38
2021/04/25 02:32:19;;;;;;;8.00;7.20;;;12.20;99.90;;;;;;5165805;27;20435;-36
2021/04/25 02:34:49;;;;;;;7.33;6.73;;;12.20;99.90;;;;;;5166489;27;20439;-36
2021/04/25 02:37:20;;;;;;;7.27;6.60;;;12.10;99.90;;;;;;5166050;27;20555;-37
2021/04/25 02:39:50;;;;;;;8.02;7.32;;;12.10;99.90;;;;;;5166441;27;20444;-37
2021/04/25 02:42:21;;;;;;;8.52;7.78;;;12.10;99.90;;;;;;5164916;27;20198;-37
2021/04/25 02:44:51;;;;;;;7.75;6.50;;;12.10;99.90;;;;;;5165046;27;20241;-38
2021/04/25 02:47:21;;;;;;;8.00;7.40;;;12.10;99.90;;;;;;5165788;27;20333;-38
2021/04/25 02:49:51;;;;;;;6.43;5.90;;;12.00;99.90;;;;;;5166516;27;20516;-34
2021/04/25 02:52:25;;;;;;;7.47;6.87;;;12.00;99.90;;;;;;5165443;27;20440;-38
2021/04/25 02:54:56;;;;;;;6.03;5.63;;;12.00;99.90;;;;;;5166263;27;20447;-36
2021/04/25 02:57:26;;;;;;;6.80;6.10;;;12.00;99.90;;;;;;5165228;27;20206;-41
2021/04/25 02:59:56;;;;;;;6.38;5.88;;;11.90;99.90;;;;;;5165863;27;20251;-38
2021/04/25 03:02:26;;;;;;;6.47;5.93;;;11.90;99.90;;;;;;5165843;27;20247;-39
2021/04/25 03:04:56;;;;;;;6.82;6.22;;;11.80;99.90;;;;;;5165726;27;20202;-39
2021/04/25 03:07:27;;;;;;;7.13;6.50;;;11.90;99.90;;;;;;5165254;27;20257;-39
2021/04/25 03:09:57;;;;;;;24.38;22.23;;;11.80;99.90;;;;;;5165720;27;20280;-37
2021/04/25 03:12:27;;;;;;;5.95;5.45;;;11.90;99.90;;;;;;5164461;27;20276;-40
2021/04/25 03:14:57;;;;;;;5.77;5.20;;;11.80;99.90;;;;;;5165478;27;20622;-39
2021/04/25 03:17:27;;;;;;;5.20;4.80;;;11.80;99.90;;;;;;5165592;27;20432;-37
2021/04/25 03:19:58;;;;;;;5.20;4.78;;;11.80;99.90;;;;;;5165688;27;20206;-38
2021/04/25 03:22:29;;;;;;;4.25;3.88;;;11.80;99.90;;;;;;5164909;27;20228;-36
2021/04/25 03:25:00;;;;;;;5.03;4.63;;;11.70;99.90;;;;;;5165047;27;20199;-39
2021/04/25 03:27:31;;;;;;;4.90;4.45;;;11.70;99.90;;;;;;5164315;27;20230;-38
2021/04/25 03:30:01;;;;;;;4.20;3.80;;;11.70;99.90;;;;;;5165328;27;20186;-37
2021/04/25 03:32:31;;;;;;;3.20;2.73;;;11.70;99.90;;;;;;5165343;27;20259;-38
2021/04/25 03:35:01;;;;;;;3.80;3.50;;;11.70;99.90;;;;;;5164894;27;20496;-38
2021/04/25 03:37:33;;;;;;;2.75;2.55;;;11.80;99.90;;;;;;5164999;27;20204;-38
2021/04/25 03:40:04;;;;;;;3.33;3.03;;;11.70;99.90;;;;;;5165177;27;20301;-37
2021/04/25 03:42:34;;;;;;;3.20;2.95;;;11.80;99.90;;;;;;5164062;27;20202;-38
2021/04/25 03:45:06;;;;;;;2.63;2.53;;;11.80;99.90;;;;;;5164981;27;20271;-38
2021/04/25 03:47:36;;;;;;;2.97;2.78;;;11.80;99.90;;;;;;5164940;27;20221;-36
2021/04/25 03:50:08;;;;;;;2.87;2.67;;;11.80;99.90;;;;;;5165025;27;20203;-36
2021/04/25 03:52:39;;;;;;;2.13;2.03;;;11.80;99.90;;;;;;5164903;27;20444;-38
2021/04/25 03:55:10;;;;;;;2.30;2.20;;;11.80;99.90;;;;;;5167517;27;20251;-36
2021/04/25 03:57:40;;;;;;;2.10;2.00;;;11.80;99.90;;;;;;5170792;27;20218;-38
2021/04/25 04:00:12;;;;;;;2.38;2.17;;;11.70;99.90;;;;;;5172507;27;20635;-39
2021/04/25 04:02:42;;;;;;;2.20;2.03;;;11.60;99.90;;;;;;5171425;27;20228;-36
2021/04/25 04:05:13;;;;;;;1.30;1.20;;;11.60;99.90;;;;;;5171990;27;20235;-35
2021/04/25 04:07:45;;;;;;;2.92;1.30;;;11.50;99.90;;;;;;5171574;27;20221;-35
2021/04/25 04:10:15;;;;;;;1.48;1.20;;;11.40;99.90;;;;;;5171993;27;20203;-37
2021/04/25 04:12:45;;;;;;;1.25;1.15;;;11.40;99.90;;;;;;5170795;27;20198;-38
2021/04/25 04:15:15;;;;;;;2.17;1.05;;;11.30;99.90;;;;;;5171788;27;20243;-37
2021/04/25 04:17:45;;;;;;;1.20;0.93;;;11.30;99.90;;;;;;5171370;27;20274;-36
2021/04/25 04:20:16;;;;;;;1.02;0.93;;;11.30;99.90;;;;;;5172053;27;20202;-35
2021/04/25 04:22:47;;;;;;;0.98;0.80;;;11.30;99.90;;;;;;5171303;27;20210;-38
2021/04/25 04:25:17;;;;;;;1.00;0.90;;;11.30;99.90;;;;;;5171556;27;20206;-35
2021/04/25 04:27:47;;;;;;;1.17;1.08;;;11.30;99.90;;;;;;5170415;27;20218;-37
2021/04/25 04:30:18;;;;;;;1.75;0.90;;;11.30;99.90;;;;;;5171813;27;20190;-32
2021/04/25 04:32:48;;;;;;;1.70;1.00;;;11.30;99.90;;;;;;5171224;27;20642;-38
2021/04/25 04:35:18;;;;;;;1.27;1.13;;;11.30;99.90;;;;;;5171592;27;20217;-38
2021/04/25 04:37:49;;;;;;;1.70;0.90;;;11.20;99.90;;;;;;5171221;27;20225;-38
2021/04/25 04:40:19;;;;;;;1.23;1.02;;;11.20;99.90;;;;;;5171737;27;20266;-36
2021/04/25 04:42:49;;;;;;;2.30;1.13;;;11.20;99.90;;;;;;5170559;27;20213;-37
2021/04/25 04:45:20;;;;;;;2.08;0.80;;;11.10;99.90;;;;;;5171622;27;20230;-38
2021/04/25 04:47:50;;;;;;;1.30;1.20;;;11.20;99.90;;;;;;5171235;27;20225;-37
2021/04/25 04:50:21;;;;;;;1.30;1.20;;;11.20;99.90;;;;;;5171647;27;20203;-38
2021/04/25 04:52:52;;;;;;;1.27;1.20;;;11.20;99.90;;;;;;5170951;27;20215;-38
2021/04/25 04:55:22;;;;;;;1.60;1.50;;;11.10;99.90;;;;;;5171226;27;20261;-34
2021/04/25 04:57:52;;;;;;;1.58;1.48;;;11.10;99.90;;;;;;5170896;27;20187;-37
2021/04/25 05:00:22;;;;;;;2.10;1.90;;;11.10;99.90;;;;;;5171530;27;20297;-35
2021/04/25 05:02:52;;;;;;;1.35;1.25;;;11.20;99.90;;;;;;5166913;27;20203;-35
2021/04/25 05:05:22;;;;;;;1.65;1.55;;;11.10;99.90;;;;;;5150455;27;20207;-35
2021/04/25 05:07:54;;;;;;;1.70;1.60;;;11.20;99.90;;;;;;5146042;27;20238;-36
2021/04/25 05:10:24;;;;;;;1.85;1.75;;;11.10;99.90;;;;;;5147471;27;20193;-36
2021/04/25 05:12:54;;;;;;;1.90;1.50;;;11.10;99.90;;;;;;5146499;27;20188;-34
2021/04/25 05:15:24;;;;;;;1.58;1.48;;;11.10;99.90;;;;;;5165072;27;20638;-33
2021/04/25 05:17:54;;;;;;;1.40;1.30;;;11.10;99.90;;;;;;5167632;27;20203;-37
2021/04/25 05:20:25;;;;;;;1.42;1.33;;;11.10;99.90;;;;;;5167894;27;20206;-36
2021/04/25 05:22:56;;;;;;;1.20;1.20;;;11.00;99.90;;;;;;5167485;27;20571;-37
2021/04/25 05:25:26;;;;;;;1.42;1.33;;;11.00;99.90;;;;;;5167854;27;20255;-37
2021/04/25 05:27:57;;;;;;;1.50;1.25;;;10.90;99.90;;;;;;5166902;27;20219;-38
2021/04/25 05:30:27;;;;;;;1.23;1.20;;;10.80;99.90;;;;;;5167900;27;20282;-35
2021/04/25 05:32:57;;;;;;;1.45;0.95;;;10.80;99.90;;;;;;5167267;27;20199;-36
2021/04/25 05:35:27;;;;;;;1.58;1.10;;;10.70;99.90;;;;;;5163880;27;20207;-37
2021/04/25 05:37:59;;;;;;;1.10;1.10;;;10.70;99.90;;;;;;5146531;27;20552;-34
2021/04/25 05:40:29;;;;;;;1.13;1.05;;;10.70;99.90;;;;;;5146930;27;20210;-38
2021/04/25 05:42:59;;;;;;;1.38;1.05;;;10.60;99.90;;;;;;5145653;27;20496;-38
2021/04/25 05:45:29;;;;;;;1.27;1.27;;;10.60;99.90;;;;;;5146379;27;20237;-37
2021/04/25 05:48:00;;;;;;;2.00;1.45;;;10.50;99.90;;;;;;5146254;27;20635;-36
2021/04/25 05:50:31;;;;;;;1.95;1.27;;;10.60;99.90;;;;;;5146611;27;20210;-36
2021/04/25 05:53:03;;;;;;;1.58;1.48;;;10.50;99.90;;;;;;5156894;27;20214;-33
2021/04/25 05:55:33;;;;;;;2.33;1.30;;;10.60;99.90;;;;;;5167373;27;20202;-40
2021/04/25 05:58:03;;;;;;;2.67;1.45;;;10.60;99.90;;;;;;5166218;27;20259;-39
2021/04/25 06:00:33;;;;;;;1.52;1.40;;;10.60;99.90;;;;;;5166808;27;20203;-35
2021/04/25 06:03:03;;;;;;;1.35;1.27;;;10.60;99.90;;;;;;5166917;27;20202;-35
2021/04/25 06:05:33;;;;;;;1.45;1.30;;;10.60;99.90;;;;;;5167051;27;20296;-36
2021/04/25 06:08:05;;;;;;;1.63;1.52;;;10.60;99.90;;;;;;5166638;27;20290;-37
2021/04/25 06:10:35;;;;;;;3.38;1.45;;;10.60;99.90;;;;;;5167538;27;20187;-35
2021/04/25 06:13:05;;;;;;;2.20;2.00;;;10.60;99.90;;;;;;5166134;27;20203;-36
2021/04/25 06:15:35;;;;;;;1.92;1.52;;;10.60;99.90;;;;;;5166989;27;20228;-33
2021/04/25 06:18:06;;;;;;;1.65;1.55;;;10.70;99.90;;;;;;5166279;27;20259;-38
2021/04/25 06:20:36;;;;;;;3.47;1.80;;;10.60;99.90;;;;;;5166606;27;20228;-37
2021/04/25 06:23:07;;;;;;;3.83;1.90;;;10.60;99.90;;;;;;5166414;27;20202;-39
2021/04/25 06:25:37;;;;;;;3.22;2.00;;;10.50;99.90;;;;;;5166549;27;20202;-35
2021/04/25 06:28:07;;;;;;;4.32;2.13;;;10.50;99.90;;;;;;5165736;27;20251;-38
2021/04/25 06:30:37;;;;;;;3.65;1.98;;;10.50;99.90;;;;;;5166909;27;20214;-36
2021/04/25 06:33:08;;;;;;;3.25;2.13;;;10.40;99.90;;;;;;5166227;27;20228;-35
2021/04/25 06:35:38;;;;;;;4.03;1.85;;;10.40;99.90;;;;;;5166071;27;20194;-34
2021/04/25 06:38:09;;;;;;;5.38;2.35;;;10.40;99.90;;;;;;5166443;27;20270;-32
2021/04/25 06:40:39;;;;;;;3.90;2.45;;;10.30;99.90;;;;;;5166556;27;20202;-36
2021/04/25 06:43:09;;;;;;;5.03;2.33;;;10.30;99.90;;;;;;5165189;27;20210;-36
2021/04/25 06:45:40;;;;;;;2.92;2.20;;;10.30;99.90;;;;;;5165974;27;20230;-37
2021/04/25 06:48:11;;;;;;;3.63;2.47;;;10.20;99.90;;;;;;5165963;27;20232;-39
2021/04/25 06:50:41;;;;;;;3.45;2.22;;;10.20;99.90;;;;;;5166308;27;20205;-36
2021/04/25 06:53:12;;;;;;;6.47;2.00;;;10.00;99.90;;;;;;5165955;27;20223;-38
2021/04/25 06:55:43;;;;;;;3.00;2.40;;;9.90;99.90;;;;;;5166003;27;20203;-38
2021/04/25 06:58:13;;;;;;;3.70;3.00;;;9.90;99.90;;;;;;5164899;27;20207;-37
2021/04/25 07:00:43;;;;;;;4.35;2.55;;;9.80;99.90;;;;;;5166150;27;20927;-36
2021/04/25 07:03:13;;;;;;;5.03;2.33;;;9.70;99.90;;;;;;5165492;27;20199;-35
2021/04/25 07:05:43;;;;;;;5.45;2.22;;;9.60;99.90;;;;;;5165886;27;20191;-35
2021/04/25 07:08:14;;;;;;;2.78;2.10;;;9.60;99.90;;;;;;5165571;27;20234;-35
2021/04/25 07:10:44;;;;;;;3.65;2.40;;;9.50;99.90;;;;;;5165989;27;20205;-38
2021/04/25 07:13:14;;;;;;;3.85;2.65;;;9.50;99.90;;;;;;5164881;27;20210;-36
2021/04/25 07:15:44;;;;;;;5.20;2.88;;;9.50;99.90;;;;;;5165467;27;20206;-35
2021/04/25 07:18:14;;;;;;;3.55;2.65;;;9.40;99.90;;;;;;5165588;27;20211;-38
2021/04/25 07:20:44;;;;;;;4.18;2.72;;;9.40;99.90;;;;;;5165976;27;20202;-34
2021/04/25 07:23:16;;;;;;;5.18;2.60;;;9.40;99.90;;;;;;5165194;27;20206;-39
2021/04/25 07:25:46;;;;;;;4.13;2.80;;;9.30;99.90;;;;;;5152382;27;20210;-37
2021/04/25 07:28:16;;;;;;;3.80;2.55;;;9.30;99.90;;;;;;5143662;27;20227;-39
2021/04/25 07:30:47;;;;;;;4.68;3.15;;;9.20;99.90;;;;;;5144346;27;20199;-39
2021/04/25 07:33:18;;;;;;;6.38;2.65;;;9.20;99.90;;;;;;5144379;27;20270;-39
2021/04/25 07:35:49;;;;;;;5.50;3.20;;;9.20;99.90;;;;;;5151707;27;20518;-38
2021/04/25 07:38:20;;;;;;;5.00;2.85;;;9.10;99.90;;;;;;5165104;27;20214;-37
2021/04/25 07:40:50;;;;;;;4.93;2.95;;;9.10;99.90;;;;;;5165394;27;20207;-36
2021/04/25 07:43:20;;;;;;;4.53;3.17;;;9.10;99.90;;;;;;5164320;27;20203;-37
2021/04/25 07:45:50;;;;;;;4.68;2.55;;;9.10;99.90;;;;;;5165526;27;20227;-39
2021/04/25 07:48:20;;;;;;;7.00;2.75;;;9.10;99.90;;;;;;5165087;27;20746;-36
2021/04/25 07:50:50;;;;;;;5.05;2.65;;;9.10;99.90;;;;;;5165919;27;20206;-37
2021/04/25 07:53:21;;;;;;;4.25;2.38;;;9.10;99.90;;;;;;5165190;27;20665;-38
2021/04/25 07:55:51;;;;;;;3.85;2.10;;;9.10;99.90;;;;;;5165591;27;20210;-38
2021/04/25 07:58:21;;;;;;;2.45;2.25;;;9.10;99.90;;;;;;5164352;27;20206;-37
2021/04/25 08:00:51;;;;;;;4.25;2.50;;;9.10;99.90;;;;;;5165465;27;20350;-35
2021/04/25 08:03:21;;;;;;;2.80;2.45;;;9.10;99.90;;;;;;5156856;27;20223;-32
2021/04/25 08:05:51;;;;;;;3.15;2.05;;;9.20;99.90;;;;;;5144724;28;20267;-38
2021/04/25 08:08:23;;;;;;;5.40;2.30;;;9.20;99.90;;;;;;5144101;28;20287;-39
2021/04/25 08:10:53;;;;;;;4.13;2.38;;;9.30;99.90;;;;;;5144659;28;20210;-36
2021/04/25 08:13:22;;;;;;;3.13;2.00;;;9.30;99.90;;;;;;5144066;27;20582;-37
2021/04/25 08:15:53;;;;;;;3.88;2.10;;;9.40;99.90;;;;;;5164972;27;20190;-38
2021/04/25 08:18:23;;;;;;;7.88;2.42;;;9.40;99.90;;;;;;5165133;27;20270;-38
2021/04/25 08:20:53;;;;;;;3.50;2.17;;;9.40;99.90;;;;;;5165163;27;20519;-37
2021/04/25 08:23:24;;;;;;;4.85;2.50;;;9.40;99.90;;;;;;5164885;27;20237;-37
2021/04/25 08:25:54;;;;;;;3.55;2.20;;;9.40;99.90;;;;;;5165086;27;20302;-36
2021/04/25 08:28:25;;;;;;;2.72;2.25;;;9.50;99.90;;;;;;5163617;27;20282;-36
2021/04/25 08:30:55;;;;;;;3.58;1.83;;;9.40;99.90;;;;;;5165009;27;20198;-37
2021/04/25 08:33:25;;;;;;;3.38;2.60;;;9.50;99.90;;;;;;5164405;27;20262;-38
2021/04/25 08:35:55;;;;;;;2.40;1.70;;;9.40;99.90;;;;;;5165123;27;20212;-36
2021/04/25 08:38:26;;;;;;;2.28;1.92;;;9.40;99.90;;;;;;5164401;27;20210;-33
2021/04/25 08:41:00;;;;;;;2.45;2.20;;;9.40;99.90;;;;;;5164996;27;20262;-34
2021/04/25 08:43:31;;;;;;;2.05;1.85;;;9.40;99.90;;;;;;5167008;27;20202;-32
2021/04/25 08:46:02;;;;;;;3.55;2.00;;;9.40;99.90;;;;;;5168664;27;20203;-37
2021/04/25 08:48:33;;;;;;;4.75;2.42;;;9.30;99.90;;;;;;5168071;27;20309;-35
2021/04/25 08:51:04;;;;;;;1.98;1.77;;;9.20;99.90;;;;;;5169073;27;20626;-37
2021/04/25 08:53:35;;;;;;;4.93;1.90;;;9.20;99.90;;;;;;5168506;27;20236;-36
2021/04/25 08:56:06;;;;;;;3.88;2.60;;;9.20;99.90;;;;;;5168363;27;20689;-37
2021/04/25 08:58:36;;;;;;;2.45;1.52;;;9.10;99.90;;;;;;5167642;27;20224;-36
2021/04/25 09:01:07;;;;;;;2.65;2.08;;;9.10;99.90;;;;;;5168477;27;20202;-36
2021/04/25 09:03:37;;;;;;;3.25;2.05;;;9.10;99.90;;;;;;5168138;27;20641;-30
2021/04/25 09:06:11;;;;;;;4.78;2.17;;;9.10;99.90;;;;;;5168514;27;20257;-36
2021/04/25 09:08:47;;;;;;;2.90;2.00;;;9.10;99.90;;;;;;5167705;27;20230;-35
2021/04/25 09:11:29;;;;;;;3.63;2.25;;;9.20;99.90;;;;;;5168364;27;20745;-35
2021/04/25 09:14:19;;;;;;;3.63;1.90;;;9.20;99.90;;;;;;5168154;27;20203;-36
2021/04/25 09:17:02;;;;;;;4.05;1.88;;;9.20;99.90;;;;;;5167968;27;20232;-34
2021/04/25 09:19:50;;;;;;;3.33;1.90;;;9.20;99.90;;;;;;5168248;27;20210;-37
2021/04/25 09:22:22;;;;;;;4.85;2.00;;;9.30;99.90;;;;;;5167566;27;20282;-37
2021/04/25 09:25:08;;;;;;;2.47;2.10;;;9.30;99.90;;;;;;5167793;27;20214;-38
2021/04/25 09:27:38;;;;;;;3.72;2.20;;;9.40;99.90;;;;;;5167210;27;20214;-38
2021/04/25 09:30:09;;;;;;;3.00;1.90;;;9.40;99.90;;;;;;5168444;27;20215;-35
2021/04/25 09:32:39;;;;;;;2.25;1.67;;;9.40;99.90;;;;;;5167570;27;20713;-40
2021/04/25 09:35:14;;;;;;;3.70;1.70;;;9.40;99.90;;;;;;5166678;27;20198;-34
2021/04/25 09:37:46;;;;;;;2.97;2.75;;;9.40;99.90;;;;;;5146494;27;20207;-35
2021/04/25 09:40:22;;;;;;;4.60;1.92;;;9.50;99.90;;;;;;5146886;27;20252;-37
2021/04/25 09:43:04;;;;;;;4.95;1.65;;;9.50;99.90;;;;;;5145516;27;20194;-32
2021/04/25 09:45:37;;;;;;;2.35;2.03;;;9.50;99.90;;;;;;5147069;27;20223;-33
2021/04/25 09:48:27;;;;;;;2.25;1.60;;;9.50;99.90;;;;;;5146298;27;20361;-34
2021/04/25 09:51:17;;;;;;;2.67;1.92;;;9.50;99.90;;;;;;5146911;27;20219;-38
2021/04/25 09:54:01;;;;;;;2.60;1.75;;;9.50;99.90;;;;;;5164130;27;20207;-38
2021/04/25 09:56:41;;;;;;;3.80;2.10;;;9.50;99.90;;;;;;5166492;27;20202;-32
2021/04/25 09:59:11;;;;;;;1.50;1.40;;;9.50;99.90;;;;;;5167424;27;20262;-38
2021/04/25 10:01:43;;;;;;;4.72;1.65;;;9.60;99.90;;;;;;5167051;27;20206;-33
2021/04/25 10:04:30;;;;;;;1.90;1.48;;;9.50;99.90;;;;;;5167608;27;20250;-37
2021/04/25 10:07:01;;;;;;;1.60;1.50;;;9.60;99.90;;;;;;5167000;27;20191;-35
2021/04/25 10:09:31;;;;;;;1.58;1.48;;;9.60;99.90;;;;;;5166978;27;20270;-34
2021/04/25 10:12:03;;;;;;;3.53;1.70;;;9.60;99.90;;;;;;5166189;27;20206;-34
2021/04/25 10:14:35;;;;;;;2.38;1.60;;;9.60;99.90;;;;;;5166997;27;20255;-36
2021/04/25 10:17:24;;;;;;;3.28;1.63;;;9.70;99.90;;;;;;5166863;27;20306;-36
2021/04/25 10:19:54;;;;;;;6.47;2.10;;;9.70;99.90;;;;;;5166879;27;20203;-37
2021/04/25 10:22:25;;;;;;;2.33;1.70;;;9.60;99.90;;;;;;5166513;27;20187;-36
2021/04/25 10:24:55;;;;;;;1.80;1.70;;;9.70;99.90;;;;;;5166917;27;20278;-31
2021/04/25 10:27:29;;;;;;;2.30;1.60;;;9.60;99.90;;;;;;5165490;27;20247;-35
2021/04/25 10:30:06;;;;;;;3.33;1.33;;;9.70;99.90;;;;;;5166680;27;20206;-36
2021/04/25 10:32:37;;;;;;;1.77;1.63;;;9.70;99.90;;;;;;5166415;27;20262;-35
2021/04/25 10:35:15;;;;;;;1.88;1.48;;;9.70;99.90;;;;;;5166583;27;20198;-35
2021/04/25 10:37:45;;;;;;;2.50;1.55;;;9.60;99.90;;;;;;5166152;27;20556;-37
2021/04/25 10:40:34;;;;;;;1.40;1.27;;;9.60;99.90;;;;;;5166885;27;20190;-34
2021/04/25 10:43:08;;;;;;;2.92;1.75;;;9.70;99.90;;;;;;5165552;27;20491;-32
2021/04/25 10:45:56;;;;;;;3.72;1.42;;;9.70;99.90;;;;;;5166214;27;20241;-34
2021/04/25 10:48:28;;;;;;;2.50;1.40;;;9.70;99.90;;;;;;5165949;27;20298;-36
2021/04/25 10:51:19;;;;;;;2.38;1.50;;;9.60;99.90;;;;;;5165664;27;20294;-31
2021/04/25 10:54:03;;;;;;;2.47;1.75;;;9.60;99.90;;;;;;5166159;27;20206;-36
2021/04/25 10:56:39;;;;;;;1.65;1.48;;;9.60;99.90;;;;;;5164907;27;20205;-34
2021/04/25 10:59:32;;;;;;;1.80;1.70;;;9.70;99.90;;;;;;5166035;27;20228;-36
2021/04/25 11:02:04;;;;;;;2.35;1.75;;;9.70;99.90;;;;;;5165773;27;20199;-37
2021/04/25 11:05:06;;;;;;;2.05;1.40;;;9.70;99.90;;;;;;5165473;27;20203;-35
2021/04/25 11:07:44;;;;;;;3.67;1.67;;;9.80;99.90;;;;;;5165623;27;20206;-36
2021/04/25 11:10:20;;;;;;;1.88;1.77;;;9.80;99.90;;;;;;5165549;27;20206;-35
2021/04/25 11:12:50;;;;;;;2.10;1.77;;;9.80;99.90;;;;;;5164794;27;20202;-38
2021/04/25 11:15:55;;;;;;;2.65;1.55;;;9.80;99.90;;;;;;5165931;27;20207;-34
2021/04/25 11:18:51;;;;;;;1.92;1.35;;;9.80;99.90;;;;;;5165260;27;20259;-36
2021/04/25 11:21:55;;;;;;;2.05;1.70;;;9.80;99.90;;;;;;5164880;27;20308;-37
2021/04/25 11:24:40;;;;;;;3.65;2.35;;;9.80;99.90;;;;;;5165281;27;20258;-33
2021/04/25 11:27:31;;;;;;;2.72;2.40;;;9.80;99.90;;;;;;5164273;27;20694;-34
2021/04/25 11:30:02;;;;;;;4.63;1.90;;;9.80;99.90;;;;;;5165386;27;20207;-35
2021/04/25 11:32:39;;;;;;;2.65;1.60;;;9.80;99.90;;;;;;5165073;27;20258;-35
2021/04/25 11:35:14;;;;;;;2.92;1.80;;;9.90;99.90;;;;;;5165721;27;20200;-34
2021/04/25 11:37:45;;;;;;;3.35;1.73;;;9.80;99.90;;;;;;5165224;27;20213;-37
2021/04/25 11:40:23;;;;;;;4.30;2.00;;;9.80;99.90;;;;;;5165124;27;20227;-37
2021/04/25 11:42:54;;;;;;;2.78;1.75;;;9.80;99.90;;;;;;5164120;27;20202;-35
2021/04/25 11:45:28;;;;;;;4.43;1.70;;;9.70;99.90;;;;;;5165111;27;20359;-36
2021/04/25 11:48:01;;;;;;;2.33;2.00;;;9.70;99.90;;;;;;5164932;27;20238;-32
2021/04/25 11:50:33;;;;;;;3.75;2.05;;;9.70;99.90;;;;;;5164923;27;20202;-35
2021/04/25 11:53:03;;;;;;;2.97;1.75;;;9.70;99.90;;;;;;5165014;27;20274;-34
2021/04/25 11:55:35;;;;;;;5.68;2.20;;;9.70;99.90;;;;;;5164886;27;20265;-32
2021/04/25 11:58:05;;;;;;;2.58;1.80;;;9.70;99.90;;;;;;5164047;27;20298;-36
2021/04/25 12:00:36;;;;;;;2.30;1.73;;;9.70;99.90;;;;;;5164926;27;20206;-36
2021/04/25 12:03:08;;;;;;;2.72;1.90;;;9.70;99.90;;;;;;5158320;27;20207;-35
2021/04/25 12:05:40;;;;;;;5.40;2.40;;;9.70;99.90;;;;;;5144548;28;20212;-33
2021/04/25 12:08:10;;;;;;;4.65;2.05;;;9.60;99.90;;;;;;5144143;28;20215;-34
2021/04/25 12:10:43;;;;;;;3.92;1.92;;;9.60;99.90;;;;;;5143860;28;20728;-35
2021/04/25 12:13:15;;;;;;;3.80;1.90;;;9.60;99.90;;;;;;5143009;28;20213;-33
2021/04/25 12:15:51;;;;;;;4.20;2.30;;;9.50;99.90;;;;;;5144576;27;20203;-36
2021/04/25 12:18:26;;;;;;;4.30;2.22;;;9.60;99.90;;;;;;5147818;27;20218;-35
2021/04/25 12:20:58;;;;;;;4.28;2.28;;;9.50;99.90;;;;;;5147990;27;20198;-38
2021/04/25 12:23:30;;;;;;;2.40;1.95;;;9.40;99.90;;;;;;5147945;27;20247;-38
2021/04/25 12:26:01;;;;;;;2.50;2.30;;;9.40;99.90;;;;;;5162254;27;20301;-36
2021/04/25 12:28:41;;;;;;;4.28;1.95;;;9.40;99.90;;;;;;5167988;27;20222;-35
2021/04/25 12:31:13;;;;;;;3.03;2.22;;;9.40;99.90;;;;;;5168548;27;20255;-36
2021/04/25 12:33:46;;;;;;;3.67;1.90;;;9.40;99.90;;;;;;5168680;27;20198;-37
2021/04/25 12:36:19;;;;;;;2.88;2.15;;;9.30;99.90;;;;;;5157717;27;20219;-36
2021/04/25 12:38:56;;;;;;;2.38;2.15;;;9.30;99.90;;;;;;5148279;27;20244;-35
2021/04/25 12:41:38;;;;;;;5.45;2.15;;;9.30;99.90;;;;;;5146528;27;20210;-32
2021/04/25 12:44:08;;;;;;;2.20;1.90;;;9.30;99.90;;;;;;5147694;27;20305;-34
2021/04/25 12:46:38;;;;;;;5.28;2.30;;;9.30;99.90;;;;;;5147538;27;20211;-33
2021/04/25 12:49:11;;;;;;;3.38;1.90;;;9.30;99.90;;;;;;5147661;27;20326;-35
2021/04/25 12:51:48;;;;;;;5.53;2.38;;;9.30;99.90;;;;;;5147050;27;20219;-36
2021/04/25 12:54:19;;;;;;;2.25;1.83;;;9.30;99.90;;;;;;5147681;27;20203;-31
2021/04/25 12:56:52;;;;;;;2.22;2.00;;;9.30;99.90;;;;;;5146646;27;20202;-35
2021/04/25 12:59:31;;;;;;;4.03;2.17;;;9.30;99.90;;;;;;5147487;27;20220;-36
2021/04/25 13:02:12;;;;;;;4.55;2.80;;;9.30;99.90;;;;;;5146759;27;20573;-35
2021/04/25 13:04:45;;;;;;;2.58;2.38;;;9.30;99.90;;;;;;5147524;27;20690;-34
2021/04/25 13:07:36;;;;;;;3.25;2.95;;;9.10;99.90;;;;;;5146905;27;20218;-32
2021/04/25 13:10:21;;;;;;;3.72;2.50;;;9.10;99.90;;;;;;5147377;27;20208;-33
2021/04/25 13:12:52;;;;;;;4.75;2.83;;;9.10;99.90;;;;;;5145967;27;20240;-36
2021/04/25 13:15:33;;;;;;;3.60;2.95;;;9.10;99.90;;;;;;5147500;27;20187;-36
2021/04/25 13:18:06;;;;;;;2.70;2.50;;;9.10;99.90;;;;;;5146985;27;20195;-36